createdAt,value
2023-05-17T00:01:51.526Z,0.50
2023-05-17T00:04:20.048Z,0.68
2023-05-17T00:06:49.900Z,0.50
2023-05-17T00:09:20.069Z,0.95
2023-05-17T00:11:48.730Z,0.65
2023-05-17T00:14:17.132Z,0.80
2023-05-17T00:16:45.312Z,0.62
2023-05-17T00:19:13.942Z,0.62
2023-05-17T00:21:42.307Z,0.68
2023-05-17T00:24:11.710Z,0.95
2023-05-17T00:26:40.285Z,1.00
2023-05-17T00:29:09.420Z,1.02
2023-05-17T00:31:37.576Z,0.60
2023-05-17T00:34:06.088Z,1.62
2023-05-17T00:36:34.164Z,1.17
2023-05-17T00:39:03.876Z,0.90
2023-05-17T00:41:36.854Z,0.80
2023-05-17T00:44:05.703Z,0.65
2023-05-17T00:46:34.818Z,0.77
2023-05-17T00:49:03.561Z,0.60
2023-05-17T00:51:32.311Z,0.60
2023-05-17T00:54:00.993Z,0.80
2023-05-17T00:56:29.776Z,0.80
2023-05-17T00:59:00.141Z,0.60
2023-05-17T01:01:28.516Z,0.85
2023-05-17T01:03:56.773Z,0.50
2023-05-17T01:06:27.232Z,0.93
2023-05-17T01:08:55.916Z,0.75
2023-05-17T01:11:33.097Z,0.60
2023-05-17T01:14:10.379Z,0.73
2023-05-17T01:16:45.412Z,1.08
2023-05-17T01:19:31.463Z,0.80
2023-05-17T01:22:10.733Z,0.82
2023-05-17T01:24:51.700Z,1.17
2023-05-17T01:27:23.057Z,1.00
2023-05-17T01:29:52.254Z,1.10
2023-05-17T01:32:21.158Z,0.60
2023-05-17T01:34:51.679Z,0.70
2023-05-17T01:37:20.357Z,1.10
2023-05-17T01:39:48.682Z,0.70
2023-05-17T01:42:25.450Z,0.90
2023-05-17T01:45:04.341Z,0.80
2023-05-17T01:47:41.318Z,0.60
2023-05-17T01:50:11.406Z,0.80
2023-05-17T01:52:46.386Z,0.82
2023-05-17T01:55:24.177Z,1.02
2023-05-17T01:57:57.250Z,0.80
2023-05-17T02:00:29.432Z,0.55
2023-05-17T02:02:59.000Z,0.95
2023-05-17T02:05:27.541Z,1.65
2023-05-17T02:07:56.605Z,0.55
2023-05-17T02:10:25.530Z,1.10
2023-05-17T02:12:55.392Z,0.88
2023-05-17T02:15:23.590Z,1.12
2023-05-17T02:17:52.101Z,0.90
2023-05-17T02:20:21.076Z,1.10
2023-05-17T02:22:49.593Z,0.57
2023-05-17T02:25:18.597Z,1.00
2023-05-17T02:27:47.071Z,1.12
2023-05-17T02:30:18.302Z,1.73
2023-05-17T02:32:47.473Z,1.12
2023-05-17T02:35:16.163Z,1.05
2023-05-17T02:37:44.722Z,1.00
2023-05-17T02:40:14.629Z,0.90
2023-05-17T02:42:42.951Z,0.77
2023-05-17T02:45:12.238Z,1.50
2023-05-17T02:47:42.702Z,1.23
2023-05-17T02:50:12.422Z,1.60
2023-05-17T02:52:41.051Z,0.68
2023-05-17T02:55:10.143Z,1.27
2023-05-17T02:57:38.371Z,0.93
2023-05-17T03:00:08.477Z,0.93
2023-05-17T03:02:36.828Z,1.17
2023-05-17T03:05:08.391Z,0.80
2023-05-17T03:07:37.990Z,1.00
2023-05-17T03:10:07.158Z,0.90
2023-05-17T03:12:36.014Z,1.30
2023-05-17T03:15:05.032Z,1.45
2023-05-17T03:17:33.503Z,0.80
2023-05-17T03:20:01.930Z,1.05
2023-05-17T03:22:32.616Z,1.20
2023-05-17T03:25:01.662Z,1.62
2023-05-17T03:27:31.757Z,1.02
2023-05-17T03:30:00.876Z,0.95
2023-05-17T03:32:30.605Z,1.33
2023-05-17T03:35:02.873Z,0.95
2023-05-17T03:37:37.613Z,0.80
2023-05-17T03:40:17.035Z,1.25
2023-05-17T03:42:45.984Z,1.25
2023-05-17T03:45:15.295Z,1.23
2023-05-17T03:47:44.920Z,1.75
2023-05-17T03:50:13.696Z,1.48
2023-05-17T03:52:44.833Z,1.25
2023-05-17T03:55:16.420Z,2.10
2023-05-17T03:57:48.473Z,1.80
2023-05-17T04:00:22.138Z,1.23
2023-05-17T04:02:52.255Z,1.83
2023-05-17T04:05:21.480Z,1.75
2023-05-17T04:07:51.513Z,1.80
2023-05-17T04:10:19.610Z,1.20
2023-05-17T04:12:48.218Z,1.35
2023-05-17T04:15:17.062Z,1.55
2023-05-17T04:17:45.528Z,1.40
2023-05-17T04:20:14.274Z,1.50
2023-05-17T04:22:42.624Z,1.50
2023-05-17T04:25:13.197Z,1.52
2023-05-17T04:27:42.192Z,1.50
2023-05-17T04:30:17.306Z,1.70
2023-05-17T04:32:46.116Z,1.35
2023-05-17T04:35:14.550Z,1.40
2023-05-17T04:37:43.000Z,1.25
2023-05-17T04:40:14.934Z,1.30
2023-05-17T04:42:43.272Z,2.17
2023-05-17T04:45:15.407Z,1.60
2023-05-17T04:47:44.543Z,1.67
2023-05-17T04:50:13.567Z,1.17
2023-05-17T04:52:42.072Z,1.95
2023-05-17T04:55:11.468Z,1.23
2023-05-17T04:57:41.307Z,1.80
2023-05-17T05:00:10.934Z,1.67
2023-05-17T05:02:40.671Z,1.58
2023-05-17T05:05:12.008Z,1.92
2023-05-17T05:07:40.997Z,1.35
2023-05-17T05:10:10.823Z,2.00
2023-05-17T05:12:41.447Z,1.60
2023-05-17T05:15:11.581Z,1.90
2023-05-17T05:17:40.118Z,1.50
2023-05-17T05:20:10.528Z,1.55
2023-05-17T05:22:39.779Z,1.95
2023-05-17T05:25:09.077Z,1.73
2023-05-17T05:27:37.266Z,2.20
2023-05-17T05:30:08.626Z,1.60
2023-05-17T05:32:38.378Z,2.15
2023-05-17T05:35:07.825Z,2.08
2023-05-17T05:37:38.392Z,2.47
2023-05-17T05:40:10.531Z,2.78
2023-05-17T05:42:39.434Z,1.85
2023-05-17T05:45:11.422Z,2.75
2023-05-17T05:47:41.392Z,2.67
2023-05-17T05:50:11.076Z,2.17
2023-05-17T05:52:39.875Z,2.60
2023-05-17T05:55:09.889Z,1.98
2023-05-17T05:57:38.495Z,2.35
2023-05-17T06:00:12.069Z,2.05
2023-05-17T06:02:41.269Z,2.10
2023-05-17T06:05:10.336Z,2.17
2023-05-17T06:07:40.967Z,2.70
2023-05-17T06:10:10.384Z,2.65
2023-05-17T06:12:38.581Z,2.17
2023-05-17T06:15:10.335Z,2.25
2023-05-17T06:17:38.877Z,2.65
2023-05-17T06:20:08.250Z,2.60
2023-05-17T06:22:36.423Z,2.45
2023-05-17T06:25:05.143Z,2.00
2023-05-17T06:27:33.729Z,2.28
2023-05-17T06:30:03.241Z,2.15
2023-05-17T06:32:34.164Z,1.77
2023-05-17T06:35:02.646Z,1.67
2023-05-17T06:37:30.796Z,1.67
2023-05-17T06:40:16.205Z,1.92
2023-05-17T06:42:45.007Z,2.03
2023-05-17T06:45:27.855Z,2.28
2023-05-17T06:48:00.253Z,2.08
2023-05-17T06:50:32.595Z,1.98
2023-05-17T06:53:01.217Z,1.75
2023-05-17T06:55:31.649Z,1.83
2023-05-17T06:58:00.695Z,1.83
2023-05-17T07:00:29.411Z,1.77
2023-05-17T07:03:00.465Z,1.83
2023-05-17T07:05:31.183Z,1.60
2023-05-17T07:08:00.912Z,1.60
2023-05-17T07:10:29.263Z,1.73
2023-05-17T07:12:57.394Z,1.27
2023-05-17T07:15:25.883Z,1.95
2023-05-17T07:17:54.328Z,1.80
2023-05-17T07:20:24.094Z,1.40
2023-05-17T07:22:52.778Z,1.87
2023-05-17T07:25:21.596Z,0.95
2023-05-17T07:27:49.654Z,1.27
2023-05-17T07:30:18.269Z,1.23
2023-05-17T07:32:48.191Z,1.42
2023-05-17T07:35:19.154Z,1.48
2023-05-17T07:37:50.062Z,1.35
2023-05-17T07:40:18.395Z,0.73
2023-05-17T07:42:46.495Z,1.00
2023-05-17T07:45:15.319Z,1.10
2023-05-17T07:47:43.599Z,1.37
2023-05-17T07:50:12.520Z,1.17
2023-05-17T07:52:41.261Z,1.50
2023-05-17T07:55:11.404Z,1.50
2023-05-17T07:57:39.599Z,1.25
2023-05-17T08:00:12.776Z,0.90
2023-05-17T08:02:41.569Z,1.37
2023-05-17T08:05:10.785Z,1.10
2023-05-17T08:07:38.943Z,1.30
2023-05-17T08:10:08.423Z,1.42
2023-05-17T08:12:38.176Z,1.77
2023-05-17T08:15:07.540Z,1.40
2023-05-17T08:17:39.036Z,1.40
2023-05-17T08:20:10.595Z,1.62
2023-05-17T08:22:39.484Z,1.70
2023-05-17T08:25:08.870Z,1.55
2023-05-17T08:27:39.092Z,1.73
2023-05-17T08:30:11.880Z,1.50
2023-05-17T08:32:45.108Z,1.70
2023-05-17T08:35:14.000Z,1.37
2023-05-17T08:37:43.078Z,1.75
2023-05-17T08:40:11.894Z,1.10
2023-05-17T08:42:43.779Z,1.30
2023-05-17T08:45:12.865Z,1.17
2023-05-17T08:47:44.028Z,0.98
2023-05-17T08:50:12.941Z,1.10
2023-05-17T08:52:42.764Z,1.62
2023-05-17T08:55:11.268Z,0.70
2023-05-17T08:57:40.455Z,1.15
2023-05-17T09:00:14.615Z,0.98
2023-05-17T09:02:44.133Z,1.30
2023-05-17T09:05:14.413Z,1.40
2023-05-17T09:07:43.456Z,1.20
2023-05-17T09:10:16.474Z,1.10
2023-05-17T09:12:47.163Z,1.20
2023-05-17T09:15:18.736Z,1.00
2023-05-17T09:17:53.625Z,1.55
2023-05-17T09:20:25.831Z,1.58
2023-05-17T09:22:54.214Z,1.35
2023-05-17T09:25:25.071Z,1.48
2023-05-17T09:27:54.321Z,1.80
2023-05-17T09:30:30.370Z,1.05
2023-05-17T09:32:59.253Z,1.35
2023-05-17T09:35:31.615Z,1.27
2023-05-17T09:38:08.687Z,1.10
2023-05-17T09:40:42.562Z,1.35
2023-05-17T09:43:14.833Z,2.42
2023-05-17T09:45:44.569Z,1.25
2023-05-17T09:48:14.789Z,1.00
2023-05-17T09:50:47.425Z,0.75
2023-05-17T09:53:29.859Z,1.17
2023-05-17T09:55:59.933Z,1.08
2023-05-17T09:58:29.336Z,1.02
2023-05-17T10:01:01.654Z,2.17
2023-05-17T10:03:33.412Z,1.25
2023-05-17T10:06:04.000Z,0.62
2023-05-17T10:08:33.697Z,1.30
2023-05-17T10:11:07.491Z,0.77
2023-05-17T10:13:41.614Z,0.85
2023-05-17T10:16:13.190Z,1.25
2023-05-17T10:18:42.032Z,0.93
2023-05-17T10:21:10.868Z,1.08
2023-05-17T10:23:42.218Z,1.23
2023-05-17T10:26:11.308Z,1.15
2023-05-17T10:28:40.535Z,0.98
2023-05-17T10:31:09.047Z,1.10
2023-05-17T10:33:40.569Z,1.00
2023-05-17T10:36:09.295Z,1.00
2023-05-17T10:38:42.300Z,1.00
2023-05-17T10:41:13.488Z,1.20
2023-05-17T10:43:43.474Z,1.00
2023-05-17T10:46:16.987Z,1.08
2023-05-17T10:48:49.470Z,0.85
2023-05-17T10:51:24.500Z,0.90
2023-05-17T10:54:06.382Z,0.80
2023-05-17T10:56:35.087Z,0.65
2023-05-17T10:59:19.847Z,0.75
2023-05-17T11:01:58.862Z,0.90
2023-05-17T11:04:34.558Z,0.82
2023-05-17T11:07:24.502Z,1.33
2023-05-17T11:09:55.669Z,0.73
2023-05-17T11:12:37.597Z,1.12
2023-05-17T11:15:10.575Z,0.98
2023-05-17T11:17:51.469Z,1.10
2023-05-17T11:20:37.908Z,1.02
2023-05-17T11:23:08.212Z,0.85
2023-05-17T11:25:39.637Z,0.85
2023-05-17T11:28:09.973Z,1.00
2023-05-17T11:30:43.602Z,0.70
2023-05-17T11:33:21.036Z,0.88
2023-05-17T11:35:56.048Z,0.73
2023-05-17T11:38:30.470Z,1.10
2023-05-17T11:40:59.908Z,0.73
2023-05-17T11:43:31.068Z,0.98
2023-05-17T11:46:01.516Z,0.73
2023-05-17T11:48:31.692Z,0.88
2023-05-17T11:51:02.513Z,1.00
2023-05-17T11:53:33.081Z,0.93
2023-05-17T11:56:04.050Z,0.82
2023-05-17T11:58:33.239Z,1.27
2023-05-17T12:01:03.908Z,1.00
2023-05-17T12:03:33.665Z,1.98
2023-05-17T12:06:09.706Z,0.93
2023-05-17T12:08:40.267Z,0.80
2023-05-17T12:11:13.528Z,1.10
2023-05-17T12:13:42.776Z,1.23
2023-05-17T12:16:15.337Z,1.02
2023-05-17T12:18:46.705Z,0.93
2023-05-17T12:21:18.298Z,0.90
2023-05-17T12:23:50.329Z,0.90
2023-05-17T12:26:21.712Z,0.60
2023-05-17T12:28:57.509Z,1.12
2023-05-17T12:31:29.110Z,0.77
2023-05-17T12:33:59.317Z,0.85
2023-05-17T12:36:30.464Z,0.82
2023-05-17T12:38:58.996Z,1.12
2023-05-17T12:41:27.625Z,0.98
2023-05-17T12:44:06.128Z,0.62
2023-05-17T12:46:41.910Z,0.70
2023-05-17T12:49:12.233Z,0.88
2023-05-17T12:51:46.624Z,1.45
2023-05-17T12:54:17.039Z,0.70
2023-05-17T12:56:45.554Z,1.25
2023-05-17T12:59:16.780Z,1.00
2023-05-17T13:01:46.966Z,0.98
2023-05-17T13:04:16.324Z,1.20
2023-05-17T13:06:48.631Z,0.90
2023-05-17T13:09:18.581Z,1.33
2023-05-17T13:11:51.877Z,0.93
2023-05-17T13:14:35.041Z,0.70
2023-05-17T13:17:03.835Z,0.68
2023-05-17T13:19:32.209Z,1.08
2023-05-17T13:22:01.754Z,1.17
2023-05-17T13:24:35.770Z,1.05
2023-05-17T13:27:07.805Z,0.98
2023-05-17T13:29:40.211Z,1.30
2023-05-17T13:32:09.747Z,1.25
2023-05-17T13:34:38.666Z,1.00
2023-05-17T13:37:11.541Z,1.42
2023-05-17T13:39:40.976Z,1.48
2023-05-17T13:42:09.635Z,1.15
2023-05-17T13:44:38.403Z,1.17
2023-05-17T13:47:07.396Z,0.70
2023-05-17T13:49:36.172Z,1.15
2023-05-17T13:52:08.633Z,1.00
2023-05-17T13:54:39.149Z,1.20
2023-05-17T13:57:08.217Z,0.90
2023-05-17T13:59:37.054Z,1.00
2023-05-17T14:02:05.438Z,0.93
2023-05-17T14:04:35.097Z,0.70
2023-05-17T14:07:03.474Z,0.57
2023-05-17T14:09:33.825Z,1.50
2023-05-17T14:12:03.683Z,0.65
2023-05-17T14:14:32.242Z,1.17
2023-05-17T14:17:01.496Z,0.80
2023-05-17T14:19:30.360Z,0.80
2023-05-17T14:21:58.768Z,1.20
2023-05-17T14:24:27.000Z,1.02
2023-05-17T14:26:55.432Z,1.08
2023-05-17T14:29:24.954Z,0.73
2023-05-17T14:31:53.286Z,1.40
2023-05-17T14:34:22.198Z,0.95
2023-05-17T14:36:53.272Z,0.50
2023-05-17T14:39:21.576Z,0.80
2023-05-17T14:41:49.726Z,0.70
2023-05-17T14:44:17.893Z,0.68
2023-05-17T14:46:47.605Z,0.80
2023-05-17T14:49:16.078Z,1.60
2023-05-17T14:51:44.929Z,0.75
2023-05-17T14:54:13.878Z,1.10
2023-05-17T14:56:42.452Z,0.93
2023-05-17T14:59:10.523Z,0.80
2023-05-17T15:01:38.909Z,1.60
2023-05-17T15:04:09.525Z,0.70
2023-05-17T15:06:38.718Z,0.93
2023-05-17T15:09:07.909Z,0.62
2023-05-17T15:11:36.344Z,1.08
2023-05-17T15:14:05.975Z,1.35
2023-05-17T15:16:35.929Z,0.98
2023-05-17T15:19:04.140Z,1.52
2023-05-17T15:21:33.894Z,0.62
2023-05-17T15:24:02.626Z,0.68
2023-05-17T15:26:30.932Z,0.93
2023-05-17T15:28:58.973Z,1.12
2023-05-17T15:31:28.647Z,1.10
2023-05-17T15:33:59.989Z,0.73
2023-05-17T15:36:28.368Z,0.90
2023-05-17T15:38:58.019Z,1.10
2023-05-17T15:41:29.765Z,1.20
2023-05-17T15:43:58.804Z,0.95
2023-05-17T15:46:27.178Z,0.95
2023-05-17T15:48:56.559Z,1.12
2023-05-17T15:51:25.120Z,1.12
2023-05-17T15:53:53.278Z,1.10
2023-05-17T15:56:25.377Z,0.68
2023-05-17T15:58:53.876Z,1.20
2023-05-17T16:01:22.046Z,0.73
2023-05-17T16:03:50.710Z,1.00
2023-05-17T16:06:19.610Z,1.05
2023-05-17T16:08:47.972Z,1.12
2023-05-17T16:11:16.330Z,0.90
2023-05-17T16:13:45.814Z,0.80
2023-05-17T16:16:14.613Z,1.20
2023-05-17T16:18:43.236Z,1.02
2023-05-17T16:21:11.573Z,0.95
2023-05-17T16:23:39.744Z,0.70
2023-05-17T16:26:11.825Z,0.80
2023-05-17T16:28:40.004Z,0.90
2023-05-17T16:31:09.772Z,1.17
2023-05-17T16:33:37.954Z,1.20
2023-05-17T16:36:06.595Z,1.17
2023-05-17T16:38:34.931Z,1.10
2023-05-17T16:41:03.417Z,1.90
2023-05-17T16:43:31.645Z,1.12
2023-05-17T16:45:59.983Z,1.20
2023-05-17T16:48:29.565Z,1.95
2023-05-17T16:50:59.466Z,1.20
2023-05-17T16:53:29.144Z,1.10
2023-05-17T16:55:57.517Z,1.20
2023-05-17T16:58:26.021Z,0.95
2023-05-17T17:00:54.622Z,1.00
2023-05-17T17:03:22.782Z,1.12
2023-05-17T17:05:52.388Z,1.05
2023-05-17T17:08:21.105Z,1.10
2023-05-17T17:10:49.248Z,0.90
2023-05-17T17:13:17.469Z,1.02
2023-05-17T17:15:45.923Z,0.90
2023-05-17T17:18:14.139Z,0.80
2023-05-17T17:20:42.490Z,1.27
2023-05-17T17:23:12.353Z,1.00
2023-05-17T17:25:40.462Z,0.70
2023-05-17T17:28:09.254Z,0.90
2023-05-17T17:30:37.747Z,1.42
2023-05-17T17:33:05.897Z,1.40
2023-05-17T17:35:33.923Z,1.15
2023-05-17T17:38:03.167Z,1.33
2023-05-17T17:40:32.961Z,1.25
2023-05-17T17:43:01.288Z,0.90
2023-05-17T17:45:29.752Z,1.27
2023-05-17T17:47:57.899Z,0.88
2023-05-17T17:50:26.268Z,1.15
2023-05-17T17:52:54.704Z,0.93
2023-05-17T17:55:23.944Z,0.70
2023-05-17T17:57:54.239Z,1.05
2023-05-17T18:00:23.449Z,1.20
2023-05-17T18:03:11.330Z,0.82
2023-05-17T18:05:43.410Z,0.80
2023-05-17T18:08:11.797Z,1.17
2023-05-17T18:10:39.883Z,0.70
2023-05-17T18:13:09.214Z,0.60
2023-05-17T18:15:37.574Z,1.20
2023-05-17T18:18:05.697Z,0.82
2023-05-17T18:20:33.842Z,0.88
2023-05-17T18:23:02.189Z,0.75
2023-05-17T18:25:30.377Z,1.23
2023-05-17T18:27:58.564Z,0.95
2023-05-17T18:30:28.887Z,1.12
2023-05-17T18:32:57.479Z,0.77
2023-05-17T18:35:25.751Z,0.77
2023-05-17T18:37:54.062Z,1.08
2023-05-17T18:40:22.010Z,1.10
2023-05-17T18:42:50.093Z,0.98
2023-05-17T18:45:18.758Z,0.90
2023-05-17T18:48:16.237Z,0.90
2023-05-17T18:50:59.859Z,0.98
2023-05-17T18:53:29.272Z,0.85
2023-05-17T18:56:01.507Z,1.08
2023-05-17T18:58:29.876Z,0.90
2023-05-17T19:00:58.470Z,0.90
2023-05-17T19:03:26.925Z,1.30
2023-05-17T19:05:55.029Z,0.70
2023-05-17T19:08:24.816Z,1.25
2023-05-17T19:10:52.943Z,0.95
2023-05-17T19:13:21.125Z,1.50
2023-05-17T19:15:50.221Z,1.50
2023-05-17T19:18:18.483Z,1.35
2023-05-17T19:20:46.602Z,1.02
2023-05-17T19:23:15.052Z,1.17
2023-05-17T19:25:44.511Z,1.80
2023-05-17T19:28:12.662Z,1.60
2023-05-17T19:30:41.237Z,1.92
2023-05-17T19:33:09.404Z,1.67
2023-05-17T19:35:40.180Z,1.52
2023-05-17T19:38:09.297Z,1.98
2023-05-17T19:40:38.318Z,1.58
2023-05-17T19:43:08.023Z,1.30
2023-05-17T19:45:36.418Z,1.77
2023-05-17T19:48:07.308Z,1.50
2023-05-17T19:50:36.685Z,1.48
2023-05-17T19:53:05.088Z,1.33
2023-05-17T19:55:34.296Z,1.48
2023-05-17T19:58:02.597Z,1.80
2023-05-17T20:00:32.909Z,1.90
2023-05-17T20:03:01.709Z,1.80
2023-05-17T20:05:30.294Z,1.73
2023-05-17T20:07:59.195Z,1.30
2023-05-17T20:10:27.863Z,1.52
2023-05-17T20:12:56.273Z,1.40
2023-05-17T20:15:25.025Z,0.90
2023-05-17T20:17:54.838Z,1.35
2023-05-17T20:20:23.192Z,1.05
2023-05-17T20:22:51.473Z,1.20
2023-05-17T20:25:19.988Z,1.70
2023-05-17T20:27:48.429Z,1.30
2023-05-17T20:30:16.667Z,1.27
2023-05-17T20:32:45.377Z,1.17
2023-05-17T20:35:15.141Z,1.00
2023-05-17T20:37:43.308Z,1.50
2023-05-17T20:40:12.341Z,1.05
2023-05-17T20:42:40.643Z,1.10
2023-05-17T20:45:10.711Z,1.60
2023-05-17T20:47:40.575Z,2.03
2023-05-17T20:50:12.168Z,1.83
2023-05-17T20:52:42.097Z,1.20
2023-05-17T20:55:10.834Z,1.52
2023-05-17T20:57:38.933Z,1.23
2023-05-17T21:00:11.541Z,1.05
2023-05-17T21:02:40.045Z,1.00
2023-05-17T21:05:10.138Z,1.17
2023-05-17T21:07:39.237Z,1.35
2023-05-17T21:10:10.508Z,1.20
2023-05-17T21:12:38.867Z,1.00
2023-05-17T21:15:15.760Z,1.00
2023-05-17T21:17:45.258Z,1.33
2023-05-17T21:20:13.862Z,1.00
2023-05-17T21:22:41.980Z,1.12
2023-05-17T21:25:11.980Z,1.40
2023-05-17T21:27:40.112Z,1.25
2023-05-17T21:30:09.487Z,1.50
2023-05-17T21:32:38.032Z,1.40
2023-05-17T21:35:07.487Z,1.52
2023-05-17T21:37:37.079Z,1.23
2023-05-17T21:40:06.462Z,1.15
2023-05-17T21:42:36.016Z,1.23
2023-05-17T21:45:04.628Z,1.50
2023-05-17T21:47:35.808Z,1.20
2023-05-17T21:50:04.088Z,1.20
2023-05-17T21:52:32.850Z,0.82
2023-05-17T21:55:01.165Z,1.58
2023-05-17T21:57:29.446Z,1.25
2023-05-17T22:00:01.832Z,1.70
2023-05-17T22:02:30.179Z,1.33
2023-05-17T22:04:59.017Z,1.27
2023-05-17T22:07:27.328Z,0.95
2023-05-17T22:09:55.481Z,1.10
2023-05-17T22:12:25.475Z,1.50
2023-05-17T22:14:55.790Z,1.40
2023-05-17T22:17:35.123Z,0.70
2023-05-17T22:20:11.393Z,1.12
2023-05-17T22:22:39.944Z,1.00
2023-05-17T22:25:09.566Z,1.10
2023-05-17T22:27:37.680Z,0.75
2023-05-17T22:30:07.883Z,1.20
2023-05-17T22:32:38.350Z,1.20
2023-05-17T22:35:07.251Z,0.98
2023-05-17T22:37:36.051Z,1.12
2023-05-17T22:40:06.404Z,0.95
2023-05-17T22:42:34.906Z,0.80
2023-05-17T22:45:03.466Z,1.70
2023-05-17T22:47:32.054Z,0.95
2023-05-17T22:50:03.064Z,1.45
2023-05-17T22:52:31.476Z,1.35
2023-05-17T22:54:59.715Z,1.35
2023-05-17T22:57:28.410Z,0.93
2023-05-17T22:59:58.931Z,1.33
2023-05-17T23:02:30.181Z,1.00
2023-05-17T23:05:04.313Z,1.00
2023-05-17T23:07:41.397Z,1.37
2023-05-17T23:10:11.018Z,1.35
2023-05-17T23:12:39.391Z,1.40
2023-05-17T23:15:09.442Z,1.17
2023-05-17T23:17:39.057Z,1.70
2023-05-17T23:20:10.246Z,1.10
2023-05-17T23:22:40.792Z,0.85
2023-05-17T23:25:11.028Z,0.95
2023-05-17T23:27:39.212Z,1.75
2023-05-17T23:30:08.845Z,1.25
2023-05-17T23:32:37.531Z,1.15
2023-05-17T23:35:06.946Z,1.77
2023-05-17T23:37:36.135Z,1.15
2023-05-17T23:40:17.784Z,1.50
2023-05-17T23:42:46.086Z,1.52
2023-05-17T23:45:14.690Z,1.50
2023-05-17T23:47:43.003Z,1.37
2023-05-17T23:50:12.273Z,1.37
2023-05-17T23:52:40.755Z,1.33
2023-05-17T23:55:12.190Z,1.70
2023-05-17T23:57:42.413Z,1.55
